sensor_id;sensor_type;location;lat;lon;timestamp;temperature;humidity
24226;DHT22;51462;51.422;5.514;2022-09-09T00:01:50;17.40;99.90
24226;DHT22;51462;51.422;5.514;2022-09-09T00:09:27;17.60;99.90
24226;DHT22;51462;51.422;5.514;2022-09-09T00:12:15;17.50;99.90
24226;DHT22;51462;51.422;5.514;2022-09-09T00:14:50;17.50;99.90
24226;DHT22;51462;51.422;5.514;2022-09-09T00:17:32;17.40;99.90
24226;DHT22;51462;51.422;5.514;2022-09-09T00:20:09;17.40;99.90
24226;DHT22;51462;51.422;5.514;2022-09-09T00:22:40;17.50;99.90
24226;DHT22;51462;51.422;5.514;2022-09-09T00:25:15;17.70;99.90
24226;DHT22;51462;51.422;5.514;2022-09-09T00:27:47;17.50;99.90
24226;DHT22;51462;51.422;5.514;2022-09-09T00:32:46;17.20;99.90
24226;DHT22;51462;51.422;5.514;2022-09-09T00:37:45;17.50;99.90
24226;DHT22;51462;51.422;5.514;2022-09-09T00:40:22;17.60;99.90
24226;DHT22;51462;51.422;5.514;2022-09-09T00:42:54;17.70;99.90
24226;DHT22;51462;51.422;5.514;2022-09-09T00:48:04;17.60;99.90
24226;DHT22;51462;51.422;5.514;2022-09-09T00:50:55;17.50;99.90
24226;DHT22;51462;51.422;5.514;2022-09-09T00:53:58;17.20;99.90
24226;DHT22;51462;51.422;5.514;2022-09-09T00:56:30;17.10;99.90
24226;DHT22;51462;51.422;5.514;2022-09-09T01:01:37;17.10;99.90
24226;DHT22;51462;51.422;5.514;2022-09-09T01:04:15;17.20;99.90
24226;DHT22;51462;51.422;5.514;2022-09-09T01:06:43;17.10;99.90
24226;DHT22;51462;51.422;5.514;2022-09-09T01:14:30;16.80;99.90
24226;DHT22;51462;51.422;5.514;2022-09-09T01:17:20;16.80;99.90
24226;DHT22;51462;51.422;5.514;2022-09-09T01:20:02;16.80;99.90
24226;DHT22;51462;51.422;5.514;2022-09-09T01:22:45;16.60;99.90
24226;DHT22;51462;51.422;5.514;2022-09-09T01:27:40;16.60;99.90
24226;DHT22;51462;51.422;5.514;2022-09-09T01:30:15;16.70;99.90
24226;DHT22;51462;51.422;5.514;2022-09-09T01:32:49;16.50;99.90
24226;DHT22;51462;51.422;5.514;2022-09-09T01:35:39;16.70;99.90
24226;DHT22;51462;51.422;5.514;2022-09-09T01:38:06;16.70;99.90
24226;DHT22;51462;51.422;5.514;2022-09-09T01:40:32;16.90;99.90
24226;DHT22;51462;51.422;5.514;2022-09-09T01:42:58;16.80;99.90
24226;DHT22;51462;51.422;5.514;2022-09-09T01:45:24;16.40;99.90
24226;DHT22;51462;51.422;5.514;2022-09-09T01:47:52;16.40;99.90
24226;DHT22;51462;51.422;5.514;2022-09-09T01:50:18;16.80;99.90
24226;DHT22;51462;51.422;5.514;2022-09-09T01:52:48;16.70;99.90
24226;DHT22;51462;51.422;5.514;2022-09-09T01:55:15;16.60;99.90
24226;DHT22;51462;51.422;5.514;2022-09-09T01:57:56;16.90;99.90
24226;DHT22;51462;51.422;5.514;2022-09-09T02:00:28;16.90;99.90
24226;DHT22;51462;51.422;5.514;2022-09-09T02:02:57;16.70;99.90
24226;DHT22;51462;51.422;5.514;2022-09-09T02:05:45;16.70;99.90
24226;DHT22;51462;51.422;5.514;2022-09-09T02:08:41;16.60;99.90
24226;DHT22;51462;51.422;5.514;2022-09-09T02:11:11;16.70;99.90
24226;DHT22;51462;51.422;5.514;2022-09-09T02:13:39;17.10;99.90
24226;DHT22;51462;51.422;5.514;2022-09-09T02:16:24;17.20;99.90
24226;DHT22;51462;51.422;5.514;2022-09-09T02:19:00;17.00;99.90
24226;DHT22;51462;51.422;5.514;2022-09-09T02:21:28;16.50;99.90
24226;DHT22;51462;51.422;5.514;2022-09-09T02:23:57;16.30;99.90
24226;DHT22;51462;51.422;5.514;2022-09-09T02:26:25;15.90;99.90
24226;DHT22;51462;51.422;5.514;2022-09-09T02:28:54;15.90;99.90
24226;DHT22;51462;51.422;5.514;2022-09-09T02:31:22;16.10;99.90
24226;DHT22;51462;51.422;5.514;2022-09-09T02:33:55;16.10;99.90
24226;DHT22;51462;51.422;5.514;2022-09-09T02:36:24;16.20;99.90
24226;DHT22;51462;51.422;5.514;2022-09-09T02:38:51;16.10;99.90
24226;DHT22;51462;51.422;5.514;2022-09-09T02:41:27;16.30;99.90
24226;DHT22;51462;51.422;5.514;2022-09-09T02:43:54;16.20;99.90
24226;DHT22;51462;51.422;5.514;2022-09-09T02:49:05;16.70;99.90
24226;DHT22;51462;51.422;5.514;2022-09-09T02:51:51;16.40;99.90
24226;DHT22;51462;51.422;5.514;2022-09-09T02:54:28;16.70;99.90
24226;DHT22;51462;51.422;5.514;2022-09-09T02:57:10;16.70;99.90
24226;DHT22;51462;51.422;5.514;2022-09-09T02:59:37;16.70;99.90
24226;DHT22;51462;51.422;5.514;2022-09-09T03:02:02;17.00;99.90
24226;DHT22;51462;51.422;5.514;2022-09-09T03:04:28;16.80;99.90
24226;DHT22;51462;51.422;5.514;2022-09-09T03:06:55;16.60;99.90
24226;DHT22;51462;51.422;5.514;2022-09-09T03:09:21;16.40;99.90
24226;DHT22;51462;51.422;5.514;2022-09-09T03:11:46;16.40;99.90
24226;DHT22;51462;51.422;5.514;2022-09-09T03:14:12;16.70;99.90
24226;DHT22;51462;51.422;5.514;2022-09-09T03:16:38;16.60;99.90
24226;DHT22;51462;51.422;5.514;2022-09-09T03:19:03;16.70;99.90
24226;DHT22;51462;51.422;5.514;2022-09-09T03:21:29;17.00;99.90
24226;DHT22;51462;51.422;5.514;2022-09-09T03:23:55;17.00;99.90
24226;DHT22;51462;51.422;5.514;2022-09-09T03:26:21;16.70;99.90
24226;DHT22;51462;51.422;5.514;2022-09-09T03:28:46;17.00;99.90
24226;DHT22;51462;51.422;5.514;2022-09-09T03:31:12;17.20;99.90
24226;DHT22;51462;51.422;5.514;2022-09-09T03:33:38;17.20;99.90
24226;DHT22;51462;51.422;5.514;2022-09-09T03:36:04;16.90;99.90
24226;DHT22;51462;51.422;5.514;2022-09-09T03:38:29;16.90;99.90
24226;DHT22;51462;51.422;5.514;2022-09-09T03:40:56;16.60;99.90
24226;DHT22;51462;51.422;5.514;2022-09-09T03:43:26;16.40;99.90
24226;DHT22;51462;51.422;5.514;2022-09-09T03:45:52;16.70;99.90
24226;DHT22;51462;51.422;5.514;2022-09-09T03:48:18;16.50;99.90
24226;DHT22;51462;51.422;5.514;2022-09-09T03:50:49;16.60;99.90
24226;DHT22;51462;51.422;5.514;2022-09-09T03:53:16;16.80;99.90
24226;DHT22;51462;51.422;5.514;2022-09-09T03:55:46;16.70;99.90
24226;DHT22;51462;51.422;5.514;2022-09-09T03:58:13;16.70;99.90
24226;DHT22;51462;51.422;5.514;2022-09-09T04:00:40;16.90;99.90
24226;DHT22;51462;51.422;5.514;2022-09-09T04:03:11;16.90;99.90
24226;DHT22;51462;51.422;5.514;2022-09-09T04:05:39;16.70;99.90
24226;DHT22;51462;51.422;5.514;2022-09-09T04:08:06;17.00;99.90
24226;DHT22;51462;51.422;5.514;2022-09-09T04:10:32;17.00;99.90
24226;DHT22;51462;51.422;5.514;2022-09-09T04:12:58;17.10;99.90
24226;DHT22;51462;51.422;5.514;2022-09-09T04:15:24;17.10;99.90
24226;DHT22;51462;51.422;5.514;2022-09-09T04:17:50;17.10;99.90
24226;DHT22;51462;51.422;5.514;2022-09-09T04:20:16;17.20;99.90
24226;DHT22;51462;51.422;5.514;2022-09-09T04:22:42;17.10;99.90
24226;DHT22;51462;51.422;5.514;2022-09-09T04:25:07;17.20;99.90
24226;DHT22;51462;51.422;5.514;2022-09-09T04:27:33;17.50;99.90
24226;DHT22;51462;51.422;5.514;2022-09-09T04:29:59;17.30;99.90
24226;DHT22;51462;51.422;5.514;2022-09-09T04:32:24;17.10;99.90
24226;DHT22;51462;51.422;5.514;2022-09-09T04:34:52;17.30;99.90
24226;DHT22;51462;51.422;5.514;2022-09-09T04:37:17;17.20;99.90
24226;DHT22;51462;51.422;5.514;2022-09-09T04:39:43;17.20;99.90
24226;DHT22;51462;51.422;5.514;2022-09-09T04:42:09;17.10;99.90
24226;DHT22;51462;51.422;5.514;2022-09-09T04:44:34;17.00;99.90
24226;DHT22;51462;51.422;5.514;2022-09-09T04:47:00;17.00;99.90
24226;DHT22;51462;51.422;5.514;2022-09-09T04:49:25;17.30;99.90
24226;DHT22;51462;51.422;5.514;2022-09-09T04:51:51;17.40;99.90
24226;DHT22;51462;51.422;5.514;2022-09-09T04:54:17;17.00;99.90
24226;DHT22;51462;51.422;5.514;2022-09-09T04:56:43;17.00;99.90
24226;DHT22;51462;51.422;5.514;2022-09-09T04:59:08;16.90;99.90
24226;DHT22;51462;51.422;5.514;2022-09-09T05:01:35;17.20;99.90
24226;DHT22;51462;51.422;5.514;2022-09-09T05:04:02;17.00;99.90
24226;DHT22;51462;51.422;5.514;2022-09-09T05:06:28;17.20;99.90
24226;DHT22;51462;51.422;5.514;2022-09-09T05:08:56;17.10;99.90
24226;DHT22;51462;51.422;5.514;2022-09-09T05:11:28;17.00;99.90
24226;DHT22;51462;51.422;5.514;2022-09-09T05:13:54;17.10;99.90
24226;DHT22;51462;51.422;5.514;2022-09-09T05:16:20;17.10;99.90
24226;DHT22;51462;51.422;5.514;2022-09-09T05:18:46;17.00;99.90
24226;DHT22;51462;51.422;5.514;2022-09-09T05:21:14;17.00;99.90
24226;DHT22;51462;51.422;5.514;2022-09-09T05:23:39;17.00;99.90
24226;DHT22;51462;51.422;5.514;2022-09-09T05:26:06;17.00;99.90
24226;DHT22;51462;51.422;5.514;2022-09-09T05:28:34;17.00;99.90
24226;DHT22;51462;51.422;5.514;2022-09-09T05:31:03;17.10;99.90
24226;DHT22;51462;51.422;5.514;2022-09-09T05:33:30;17.00;99.90
24226;DHT22;51462;51.422;5.514;2022-09-09T05:36:07;17.00;99.90
24226;DHT22;51462;51.422;5.514;2022-09-09T05:38:34;17.10;99.90
24226;DHT22;51462;51.422;5.514;2022-09-09T05:41:01;17.10;99.90
24226;DHT22;51462;51.422;5.514;2022-09-09T05:43:28;17.20;99.90
24226;DHT22;51462;51.422;5.514;2022-09-09T05:46:01;16.90;99.90
24226;DHT22;51462;51.422;5.514;2022-09-09T05:48:28;16.80;99.90
24226;DHT22;51462;51.422;5.514;2022-09-09T05:50:55;16.80;99.90
24226;DHT22;51462;51.422;5.514;2022-09-09T05:53:20;17.10;99.90
24226;DHT22;51462;51.422;5.514;2022-09-09T05:55:46;17.20;99.90
24226;DHT22;51462;51.422;5.514;2022-09-09T05:58:13;16.80;99.90
24226;DHT22;51462;51.422;5.514;2022-09-09T06:00:39;16.70;99.90
24226;DHT22;51462;51.422;5.514;2022-09-09T06:03:05;17.00;99.90
24226;DHT22;51462;51.422;5.514;2022-09-09T06:05:31;17.10;99.90
24226;DHT22;51462;51.422;5.514;2022-09-09T06:07:56;17.40;99.90
24226;DHT22;51462;51.422;5.514;2022-09-09T06:10:22;17.30;99.90
24226;DHT22;51462;51.422;5.514;2022-09-09T06:12:47;17.30;99.90
24226;DHT22;51462;51.422;5.514;2022-09-09T06:15:13;17.40;99.90
24226;DHT22;51462;51.422;5.514;2022-09-09T06:17:39;17.20;99.90
24226;DHT22;51462;51.422;5.514;2022-09-09T06:20:04;17.20;99.90
24226;DHT22;51462;51.422;5.514;2022-09-09T06:22:30;17.10;99.90
24226;DHT22;51462;51.422;5.514;2022-09-09T06:24:56;17.40;99.90
24226;DHT22;51462;51.422;5.514;2022-09-09T06:27:22;17.60;99.90
24226;DHT22;51462;51.422;5.514;2022-09-09T06:29:47;17.40;99.90
24226;DHT22;51462;51.422;5.514;2022-09-09T06:32:13;17.30;99.90
24226;DHT22;51462;51.422;5.514;2022-09-09T06:34:39;17.40;99.90
24226;DHT22;51462;51.422;5.514;2022-09-09T06:37:05;17.10;99.90
24226;DHT22;51462;51.422;5.514;2022-09-09T06:39:32;17.20;99.90
24226;DHT22;51462;51.422;5.514;2022-09-09T06:41:57;17.20;99.90
24226;DHT22;51462;51.422;5.514;2022-09-09T06:44:24;17.10;99.90
24226;DHT22;51462;51.422;5.514;2022-09-09T06:46:52;17.10;99.90
24226;DHT22;51462;51.422;5.514;2022-09-09T06:49:18;17.30;99.90
24226;DHT22;51462;51.422;5.514;2022-09-09T06:51:43;17.20;99.90
24226;DHT22;51462;51.422;5.514;2022-09-09T06:54:10;17.70;99.90
24226;DHT22;51462;51.422;5.514;2022-09-09T06:56:38;17.50;99.90
24226;DHT22;51462;51.422;5.514;2022-09-09T06:59:07;17.40;99.90
24226;DHT22;51462;51.422;5.514;2022-09-09T07:01:40;17.50;99.90
24226;DHT22;51462;51.422;5.514;2022-09-09T07:04:12;17.30;99.90
24226;DHT22;51462;51.422;5.514;2022-09-09T07:06:41;17.50;99.90
24226;DHT22;51462;51.422;5.514;2022-09-09T07:09:10;17.70;99.90
24226;DHT22;51462;51.422;5.514;2022-09-09T07:11:42;17.40;99.90
24226;DHT22;51462;51.422;5.514;2022-09-09T07:14:08;17.50;99.90
24226;DHT22;51462;51.422;5.514;2022-09-09T07:16:34;17.60;99.90
24226;DHT22;51462;51.422;5.514;2022-09-09T07:19:03;17.40;99.90
24226;DHT22;51462;51.422;5.514;2022-09-09T07:21:29;17.30;99.90
24226;DHT22;51462;51.422;5.514;2022-09-09T07:23:56;17.60;99.90
24226;DHT22;51462;51.422;5.514;2022-09-09T07:26:24;17.60;99.90
24226;DHT22;51462;51.422;5.514;2022-09-09T07:28:50;17.60;99.90
24226;DHT22;51462;51.422;5.514;2022-09-09T07:31:19;17.70;99.90
24226;DHT22;51462;51.422;5.514;2022-09-09T07:33:46;17.80;99.90
24226;DHT22;51462;51.422;5.514;2022-09-09T07:36:22;17.80;99.90
24226;DHT22;51462;51.422;5.514;2022-09-09T07:38:50;17.80;99.90
24226;DHT22;51462;51.422;5.514;2022-09-09T07:41:25;17.90;99.90
24226;DHT22;51462;51.422;5.514;2022-09-09T07:43:52;18.10;99.90
24226;DHT22;51462;51.422;5.514;2022-09-09T07:46:20;18.00;99.90
24226;DHT22;51462;51.422;5.514;2022-09-09T07:48:47;17.80;99.90
24226;DHT22;51462;51.422;5.514;2022-09-09T07:51:18;17.90;99.90
24226;DHT22;51462;51.422;5.514;2022-09-09T07:53:45;18.00;99.90
24226;DHT22;51462;51.422;5.514;2022-09-09T07:56:14;18.10;99.90
24226;DHT22;51462;51.422;5.514;2022-09-09T07:58:40;18.20;99.90
24226;DHT22;51462;51.422;5.514;2022-09-09T08:01:12;18.40;99.90
24226;DHT22;51462;51.422;5.514;2022-09-09T08:03:38;18.30;99.90
24226;DHT22;51462;51.422;5.514;2022-09-09T08:06:06;18.30;99.90
24226;DHT22;51462;51.422;5.514;2022-09-09T08:08:33;18.40;99.90
24226;DHT22;51462;51.422;5.514;2022-09-09T08:11:08;18.30;99.90
24226;DHT22;51462;51.422;5.514;2022-09-09T08:13:36;18.40;99.90
24226;DHT22;51462;51.422;5.514;2022-09-09T08:16:16;18.30;99.90
24226;DHT22;51462;51.422;5.514;2022-09-09T08:18:41;18.40;99.90
24226;DHT22;51462;51.422;5.514;2022-09-09T08:21:38;18.40;99.90
24226;DHT22;51462;51.422;5.514;2022-09-09T08:24:05;18.30;99.90
24226;DHT22;51462;51.422;5.514;2022-09-09T08:26:36;18.30;99.90
24226;DHT22;51462;51.422;5.514;2022-09-09T08:29:04;18.50;99.90
24226;DHT22;51462;51.422;5.514;2022-09-09T08:31:31;18.70;99.90
24226;DHT22;51462;51.422;5.514;2022-09-09T08:33:59;18.50;99.90
24226;DHT22;51462;51.422;5.514;2022-09-09T08:36:28;18.40;99.90
24226;DHT22;51462;51.422;5.514;2022-09-09T08:38:56;18.60;99.90
24226;DHT22;51462;51.422;5.514;2022-09-09T08:46:54;18.60;99.90
24226;DHT22;51462;51.422;5.514;2022-09-09T08:52:13;18.50;99.90
24226;DHT22;51462;51.422;5.514;2022-09-09T08:54:41;18.80;99.90
24226;DHT22;51462;51.422;5.514;2022-09-09T08:57:23;18.80;99.90
24226;DHT22;51462;51.422;5.514;2022-09-09T08:59:54;18.90;99.90
24226;DHT22;51462;51.422;5.514;2022-09-09T09:05:00;18.60;99.90
24226;DHT22;51462;51.422;5.514;2022-09-09T09:07:36;18.70;99.90
24226;DHT22;51462;51.422;5.514;2022-09-09T09:10:36;18.70;99.90
24226;DHT22;51462;51.422;5.514;2022-09-09T09:13:11;18.50;99.90
24226;DHT22;51462;51.422;5.514;2022-09-09T09:15:38;18.60;99.90
24226;DHT22;51462;51.422;5.514;2022-09-09T09:18:10;18.70;99.90
24226;DHT22;51462;51.422;5.514;2022-09-09T09:21:05;18.70;99.90
24226;DHT22;51462;51.422;5.514;2022-09-09T09:23:47;18.70;99.90
24226;DHT22;51462;51.422;5.514;2022-09-09T09:26:14;18.70;99.90
24226;DHT22;51462;51.422;5.514;2022-09-09T09:28:40;18.50;99.90
24226;DHT22;51462;51.422;5.514;2022-09-09T09:31:09;18.70;99.90
24226;DHT22;51462;51.422;5.514;2022-09-09T09:33:48;18.80;99.90
24226;DHT22;51462;51.422;5.514;2022-09-09T09:36:15;18.70;99.90
24226;DHT22;51462;51.422;5.514;2022-09-09T09:38:52;18.50;99.90
24226;DHT22;51462;51.422;5.514;2022-09-09T09:41:32;18.60;99.90
24226;DHT22;51462;51.422;5.514;2022-09-09T09:43:59;18.80;99.90
24226;DHT22;51462;51.422;5.514;2022-09-09T09:46:26;18.90;99.90
24226;DHT22;51462;51.422;5.514;2022-09-09T09:49:02;18.90;99.90
24226;DHT22;51462;51.422;5.514;2022-09-09T09:51:30;19.00;99.90
24226;DHT22;51462;51.422;5.514;2022-09-09T09:54:27;19.10;99.90
24226;DHT22;51462;51.422;5.514;2022-09-09T09:56:54;19.00;99.90
24226;DHT22;51462;51.422;5.514;2022-09-09T10:01:49;18.70;99.90
24226;DHT22;51462;51.422;5.514;2022-09-09T10:04:21;18.80;99.90
24226;DHT22;51462;51.422;5.514;2022-09-09T10:06:49;18.60;99.90
24226;DHT22;51462;51.422;5.514;2022-09-09T10:09:26;18.80;99.90
24226;DHT22;51462;51.422;5.514;2022-09-09T10:12:20;18.80;99.90
24226;DHT22;51462;51.422;5.514;2022-09-09T10:15:22;18.70;99.90
24226;DHT22;51462;51.422;5.514;2022-09-09T10:21:07;18.70;99.90
24226;DHT22;51462;51.422;5.514;2022-09-09T10:27:11;18.70;99.90
24226;DHT22;51462;51.422;5.514;2022-09-09T10:32:49;18.70;99.90
24226;DHT22;51462;51.422;5.514;2022-09-09T10:35:29;18.40;99.90
24226;DHT22;51462;51.422;5.514;2022-09-09T10:41:05;18.20;99.90
24226;DHT22;51462;51.422;5.514;2022-09-09T10:43:55;18.40;99.90
24226;DHT22;51462;51.422;5.514;2022-09-09T10:54:28;18.40;99.90
24226;DHT22;51462;51.422;5.514;2022-09-09T10:57:08;18.70;99.90
24226;DHT22;51462;51.422;5.514;2022-09-09T10:59:41;18.80;99.90
24226;DHT22;51462;51.422;5.514;2022-09-09T11:02:29;18.80;99.90
24226;DHT22;51462;51.422;5.514;2022-09-09T11:04:59;18.60;99.90
24226;DHT22;51462;51.422;5.514;2022-09-09T11:07:33;18.60;99.90
24226;DHT22;51462;51.422;5.514;2022-09-09T11:10:14;18.80;99.90
24226;DHT22;51462;51.422;5.514;2022-09-09T11:12:43;18.70;99.90
24226;DHT22;51462;51.422;5.514;2022-09-09T11:15:24;18.70;99.90
24226;DHT22;51462;51.422;5.514;2022-09-09T11:17:55;18.70;99.90
24226;DHT22;51462;51.422;5.514;2022-09-09T11:20:22;18.70;99.90
24226;DHT22;51462;51.422;5.514;2022-09-09T11:22:51;18.60;99.90
24226;DHT22;51462;51.422;5.514;2022-09-09T11:25:25;18.80;99.90
24226;DHT22;51462;51.422;5.514;2022-09-09T11:28:28;19.10;99.90
24226;DHT22;51462;51.422;5.514;2022-09-09T11:31:29;19.00;99.90
24226;DHT22;51462;51.422;5.514;2022-09-09T11:42:06;19.00;99.90
24226;DHT22;51462;51.422;5.514;2022-09-09T11:44:32;19.10;99.90
24226;DHT22;51462;51.422;5.514;2022-09-09T11:46:58;19.10;99.90
24226;DHT22;51462;51.422;5.514;2022-09-09T11:49:40;18.80;99.90
24226;DHT22;51462;51.422;5.514;2022-09-09T11:52:19;19.00;99.90
24226;DHT22;51462;51.422;5.514;2022-09-09T11:54:47;19.00;99.90
24226;DHT22;51462;51.422;5.514;2022-09-09T11:57:25;19.00;99.90
24226;DHT22;51462;51.422;5.514;2022-09-09T11:59:53;19.10;99.90
24226;DHT22;51462;51.422;5.514;2022-09-09T12:02:28;18.90;99.90
24226;DHT22;51462;51.422;5.514;2022-09-09T12:12:35;19.20;99.90
24226;DHT22;51462;51.422;5.514;2022-09-09T12:17:45;19.20;99.90
24226;DHT22;51462;51.422;5.514;2022-09-09T12:20:26;19.30;99.90
24226;DHT22;51462;51.422;5.514;2022-09-09T12:28:32;19.50;99.90
24226;DHT22;51462;51.422;5.514;2022-09-09T12:31:15;19.60;99.90
24226;DHT22;51462;51.422;5.514;2022-09-09T12:33:45;19.60;99.90
24226;DHT22;51462;51.422;5.514;2022-09-09T12:36:19;19.80;99.90
24226;DHT22;51462;51.422;5.514;2022-09-09T12:38:47;19.60;99.90
24226;DHT22;51462;51.422;5.514;2022-09-09T12:41:23;19.60;99.90
24226;DHT22;51462;51.422;5.514;2022-09-09T12:43:49;19.50;99.90
24226;DHT22;51462;51.422;5.514;2022-09-09T12:46:39;19.60;99.90
24226;DHT22;51462;51.422;5.514;2022-09-09T12:51:52;19.60;99.90
24226;DHT22;51462;51.422;5.514;2022-09-09T12:54:19;19.60;99.90
24226;DHT22;51462;51.422;5.514;2022-09-09T12:56:48;19.60;99.90
24226;DHT22;51462;51.422;5.514;2022-09-09T12:59:39;19.90;99.90
24226;DHT22;51462;51.422;5.514;2022-09-09T13:02:34;20.00;99.90
24226;DHT22;51462;51.422;5.514;2022-09-09T13:05:16;19.80;99.90
24226;DHT22;51462;51.422;5.514;2022-09-09T13:07:42;19.80;99.90
24226;DHT22;51462;51.422;5.514;2022-09-09T13:10:11;19.60;99.90
24226;DHT22;51462;51.422;5.514;2022-09-09T13:12:38;19.80;99.90
24226;DHT22;51462;51.422;5.514;2022-09-09T13:15:04;19.80;99.90
24226;DHT22;51462;51.422;5.514;2022-09-09T13:17:36;19.80;99.90
24226;DHT22;51462;51.422;5.514;2022-09-09T13:20:02;19.80;99.90
24226;DHT22;51462;51.422;5.514;2022-09-09T13:22:36;20.00;99.90
24226;DHT22;51462;51.422;5.514;2022-09-09T13:30:37;20.20;99.90
24226;DHT22;51462;51.422;5.514;2022-09-09T13:33:20;20.20;99.90
24226;DHT22;51462;51.422;5.514;2022-09-09T13:38:16;20.00;99.90
24226;DHT22;51462;51.422;5.514;2022-09-09T13:43:27;20.00;99.90
24226;DHT22;51462;51.422;5.514;2022-09-09T13:46:05;20.10;99.90
24226;DHT22;51462;51.422;5.514;2022-09-09T13:48:31;20.00;99.90
24226;DHT22;51462;51.422;5.514;2022-09-09T13:51:04;20.20;99.90
24226;DHT22;51462;51.422;5.514;2022-09-09T13:53:31;20.20;99.90
24226;DHT22;51462;51.422;5.514;2022-09-09T13:55:57;20.20;99.90
24226;DHT22;51462;51.422;5.514;2022-09-09T13:58:24;20.10;99.90
24226;DHT22;51462;51.422;5.514;2022-09-09T14:00:51;20.30;99.90
24226;DHT22;51462;51.422;5.514;2022-09-09T14:03:16;21.00;99.90
24226;DHT22;51462;51.422;5.514;2022-09-09T14:05:43;21.90;99.90
24226;DHT22;51462;51.422;5.514;2022-09-09T14:08:21;22.10;99.90
24226;DHT22;51462;51.422;5.514;2022-09-09T14:10:47;21.60;99.90
24226;DHT22;51462;51.422;5.514;2022-09-09T14:13:13;21.00;99.90
24226;DHT22;51462;51.422;5.514;2022-09-09T14:15:40;20.90;99.90
24226;DHT22;51462;51.422;5.514;2022-09-09T14:18:05;20.70;99.90
24226;DHT22;51462;51.422;5.514;2022-09-09T14:20:31;20.60;99.90
24226;DHT22;51462;51.422;5.514;2022-09-09T14:22:57;20.70;99.90
24226;DHT22;51462;51.422;5.514;2022-09-09T14:25:23;20.50;99.90
24226;DHT22;51462;51.422;5.514;2022-09-09T14:27:49;20.60;99.90
24226;DHT22;51462;51.422;5.514;2022-09-09T14:30:16;21.30;99.90
24226;DHT22;51462;51.422;5.514;2022-09-09T14:32:42;22.90;99.90
24226;DHT22;51462;51.422;5.514;2022-09-09T14:35:07;23.50;99.90
24226;DHT22;51462;51.422;5.514;2022-09-09T14:37:33;23.80;99.90
24226;DHT22;51462;51.422;5.514;2022-09-09T14:39:59;23.90;99.90
24226;DHT22;51462;51.422;5.514;2022-09-09T14:42:24;25.00;99.90
24226;DHT22;51462;51.422;5.514;2022-09-09T14:44:50;25.10;99.90
24226;DHT22;51462;51.422;5.514;2022-09-09T14:47:15;25.00;99.90
24226;DHT22;51462;51.422;5.514;2022-09-09T14:49:41;24.10;99.90
24226;DHT22;51462;51.422;5.514;2022-09-09T14:52:06;23.60;99.90
24226;DHT22;51462;51.422;5.514;2022-09-09T14:54:33;23.70;99.90
24226;DHT22;51462;51.422;5.514;2022-09-09T14:56:59;23.10;99.90
24226;DHT22;51462;51.422;5.514;2022-09-09T14:59:25;22.50;99.90
24226;DHT22;51462;51.422;5.514;2022-09-09T15:01:50;22.10;99.90
24226;DHT22;51462;51.422;5.514;2022-09-09T15:04:16;22.10;99.90
24226;DHT22;51462;51.422;5.514;2022-09-09T15:06:45;22.00;99.90
24226;DHT22;51462;51.422;5.514;2022-09-09T15:09:13;22.10;99.90
24226;DHT22;51462;51.422;5.514;2022-09-09T15:11:39;22.50;99.90
24226;DHT22;51462;51.422;5.514;2022-09-09T15:14:06;22.80;99.90
24226;DHT22;51462;51.422;5.514;2022-09-09T15:16:33;22.80;99.90
24226;DHT22;51462;51.422;5.514;2022-09-09T15:18:59;22.70;99.90
24226;DHT22;51462;51.422;5.514;2022-09-09T15:21:28;22.60;99.90
24226;DHT22;51462;51.422;5.514;2022-09-09T15:23:54;22.50;99.90
24226;DHT22;51462;51.422;5.514;2022-09-09T15:26:20;22.50;99.90
24226;DHT22;51462;51.422;5.514;2022-09-09T15:28:47;22.30;99.90
24226;DHT22;51462;51.422;5.514;2022-09-09T15:31:19;22.20;99.90
24226;DHT22;51462;51.422;5.514;2022-09-09T15:33:52;22.50;99.90
24226;DHT22;51462;51.422;5.514;2022-09-09T15:36:21;22.70;99.90
24226;DHT22;51462;51.422;5.514;2022-09-09T15:38:47;22.50;99.90
24226;DHT22;51462;51.422;5.514;2022-09-09T15:41:14;22.50;99.90
24226;DHT22;51462;51.422;5.514;2022-09-09T15:43:43;22.40;99.90
24226;DHT22;51462;51.422;5.514;2022-09-09T15:46:29;22.30;99.90
24226;DHT22;51462;51.422;5.514;2022-09-09T15:51:32;21.90;99.90
24226;DHT22;51462;51.422;5.514;2022-09-09T15:53:59;21.80;99.90
24226;DHT22;51462;51.422;5.514;2022-09-09T15:56:29;21.60;99.90
24226;DHT22;51462;51.422;5.514;2022-09-09T15:58:59;21.90;99.90
24226;DHT22;51462;51.422;5.514;2022-09-09T16:01:26;21.90;99.90
24226;DHT22;51462;51.422;5.514;2022-09-09T16:03:52;22.00;99.90
24226;DHT22;51462;51.422;5.514;2022-09-09T16:06:19;22.10;99.90
24226;DHT22;51462;51.422;5.514;2022-09-09T16:08:47;22.00;99.90
24226;DHT22;51462;51.422;5.514;2022-09-09T16:11:16;22.00;99.90
24226;DHT22;51462;51.422;5.514;2022-09-09T16:13:43;21.70;99.90
24226;DHT22;51462;51.422;5.514;2022-09-09T16:16:13;21.70;99.90
24226;DHT22;51462;51.422;5.514;2022-09-09T16:18:41;21.50;99.90
24226;DHT22;51462;51.422;5.514;2022-09-09T16:21:08;21.70;99.90
24226;DHT22;51462;51.422;5.514;2022-09-09T16:23:37;21.80;99.90
24226;DHT22;51462;51.422;5.514;2022-09-09T16:26:04;21.80;99.90
24226;DHT22;51462;51.422;5.514;2022-09-09T16:28:29;21.50;99.90
24226;DHT22;51462;51.422;5.514;2022-09-09T16:30:55;21.40;99.90
24226;DHT22;51462;51.422;5.514;2022-09-09T16:33:21;21.40;99.90
24226;DHT22;51462;51.422;5.514;2022-09-09T16:35:47;21.30;99.90
24226;DHT22;51462;51.422;5.514;2022-09-09T16:38:14;20.90;99.90
24226;DHT22;51462;51.422;5.514;2022-09-09T16:40:40;21.10;99.90
24226;DHT22;51462;51.422;5.514;2022-09-09T16:43:07;21.30;99.90
24226;DHT22;51462;51.422;5.514;2022-09-09T16:45:33;20.10;99.90
24226;DHT22;51462;51.422;5.514;2022-09-09T16:47:59;20.00;99.90
24226;DHT22;51462;51.422;5.514;2022-09-09T16:50:26;19.20;99.90
24226;DHT22;51462;51.422;5.514;2022-09-09T16:52:52;18.90;99.90
24226;DHT22;51462;51.422;5.514;2022-09-09T16:55:18;18.50;99.90
24226;DHT22;51462;51.422;5.514;2022-09-09T16:57:46;18.10;99.90
24226;DHT22;51462;51.422;5.514;2022-09-09T17:00:14;18.20;99.90
24226;DHT22;51462;51.422;5.514;2022-09-09T17:02:41;18.20;99.90
24226;DHT22;51462;51.422;5.514;2022-09-09T17:05:07;18.80;99.90
24226;DHT22;51462;51.422;5.514;2022-09-09T17:07:33;18.60;99.90
24226;DHT22;51462;51.422;5.514;2022-09-09T17:09:58;19.00;99.90
24226;DHT22;51462;51.422;5.514;2022-09-09T17:12:24;19.10;99.90
24226;DHT22;51462;51.422;5.514;2022-09-09T17:14:50;19.10;99.90
24226;DHT22;51462;51.422;5.514;2022-09-09T17:17:16;19.00;99.90
24226;DHT22;51462;51.422;5.514;2022-09-09T17:19:42;19.10;99.90
24226;DHT22;51462;51.422;5.514;2022-09-09T17:22:08;19.10;99.90
24226;DHT22;51462;51.422;5.514;2022-09-09T17:24:34;19.00;99.90
24226;DHT22;51462;51.422;5.514;2022-09-09T17:27:00;18.70;99.90
24226;DHT22;51462;51.422;5.514;2022-09-09T17:29:26;18.80;99.90